Time;durP1;ratioP1;P1;durP2;ratioP2;P2;SDS_P1;SDS_P2;PMS_P1;PMS_P2;Temp;Humidity;BMP_temperature;BMP_pressure;BME280_temperature;BME280_humidity;BME280_pressure;Samples;Min_cycle;Max_cycle;Signal;HPM_P1;HPM_P2
2022/06/23 00:01:54;;;;;;;32.33;30.10;;;;;;;14.57;100.00;100604.66;5024418;28;19983;-83
2022/06/23 00:04:25;;;;;;;36.30;33.90;;;;;;;14.18;100.00;100608.84;5012320;28;20047;-82
2022/06/23 00:07:02;;;;;;;36.72;34.25;;;;;;;14.11;100.00;100608.16;5023293;28;20058;-84
2022/06/23 00:09:39;;;;;;;37.83;35.45;;;;;;;14.42;100.00;100612.34;5013499;28;20541;-83
2022/06/23 00:12:22;;;;;;;33.58;31.13;;;;;;;14.53;100.00;100616.88;5017579;28;20069;-83
2022/06/23 00:14:57;;;;;;;39.47;37.05;;;;;;;14.39;100.00;100624.28;5004026;28;20375;-84
2022/06/23 00:17:34;;;;;;;40.50;37.67;;;;;;;13.57;100.00;100634.88;5013411;28;20121;-82
2022/06/23 00:20:06;;;;;;;39.03;36.53;;;;;;;14.29;100.00;100639.28;5015190;28;20052;-83
2022/06/23 00:22:38;;;;;;;37.95;35.42;;;;;;;13.74;100.00;100638.53;5024146;28;20081;-82
2022/06/23 00:25:09;;;;;;;37.35;34.78;;;;;;;14.26;100.00;100647.78;5010431;28;20072;-84
2022/06/23 00:27:41;;;;;;;37.13;34.47;;;;;;;13.76;100.00;100643.63;5017670;28;20042;-84
2022/06/23 00:30:20;;;;;;;;;;;;;;;14.41;100.00;100634.75;5015680;28;20060;-84
2022/06/23 00:32:48;;;;;;;35.90;33.50;;;;;;;14.12;100.00;100631.94;5017133;28;19921;-84
2022/06/23 00:35:18;;;;;;;33.55;31.25;;;;;;;13.93;100.00;100635.78;5020379;28;20478;-84
2022/06/23 00:37:46;;;;;;;33.70;31.30;;;;;;;14.10;100.00;100630.56;5013103;28;20049;-84
2022/06/23 00:40:15;;;;;;;33.60;31.08;;;;;;;13.80;100.00;100627.94;5013545;28;20237;-84
2022/06/23 00:42:52;;;;;;;32.33;29.83;;;;;;;13.87;100.00;100634.84;5017745;28;20064;-83
2022/06/23 00:45:28;;;;;;;34.70;32.33;;;;;;;13.81;100.00;100637.59;5020410;28;20489;-82
2022/06/23 00:48:02;;;;;;;40.40;37.90;;;;;;;13.48;100.00;100639.72;5012961;28;20050;-83
2022/06/23 00:50:35;;;;;;;31.83;29.63;;;;;;;13.84;100.00;100637.16;5018990;28;20061;-84
2022/06/23 00:53:03;;;;;;;;;;;;;;;13.58;100.00;100641.81;5007315;28;20045;-83
2022/06/23 00:55:43;;;;;;;33.25;30.98;;;;;;;13.83;100.00;100644.34;5018647;28;20353;-83
2022/06/23 00:58:23;;;;;;;35.88;33.47;;;;;;;13.03;100.00;100642.72;5013817;28;20522;-84
2022/06/23 01:00:54;;;;;;;33.03;30.83;;;;;;;13.11;100.00;100644.28;5017087;28;20046;-82
2022/06/23 01:03:28;;;;;;;32.45;30.15;;;;;;;13.11;100.00;100646.16;5016834;28;20054;-85
2022/06/23 01:06:05;;;;;;;32.00;29.83;;;;;;;13.40;100.00;100642.69;5017154;28;20068;-85
2022/06/23 01:08:40;;;;;;;30.95;28.52;;;;;;;13.33;100.00;100638.50;5020102;28;20058;-84
2022/06/23 01:11:17;;;;;;;31.60;29.10;;;;;;;12.96;100.00;100644.66;5021602;28;20053;-83
2022/06/23 01:13:50;;;;;;;32.00;29.17;;;;;;;12.75;100.00;100634.47;5034863;28;20049;-84
2022/06/23 01:16:18;;;;;;;;;;;;;;;12.94;100.00;100638.72;5022355;28;20457;-83
2022/06/23 01:18:56;;;;;;;33.10;30.35;;;;;;;13.50;100.00;100639.50;5020986;28;20004;-83
2022/06/23 01:21:31;;;;;;;36.75;34.13;;;;;;;13.13;100.00;100638.72;5017957;28;20520;-83
2022/06/23 01:24:23;;;;;;;34.45;32.25;;;;;;;13.64;100.00;100632.09;5018043;28;20120;-85
2022/06/23 01:27:19;;;;;;;31.30;29.00;;;;;;;13.38;100.00;100634.13;5006927;28;20046;-83
2022/06/23 01:29:54;;;;;;;31.65;29.40;;;;;;;13.10;100.00;100634.66;5018567;28;20050;-83
2022/06/23 01:32:31;;;;;;;31.92;29.90;;;;;;;13.37;100.00;100635.13;5024978;28;20039;-86
2022/06/23 01:35:07;;;;;;;33.60;31.40;;;;;;;13.26;100.00;100631.41;5012405;28;20060;-83
2022/06/23 01:37:40;;;;;;;32.65;30.65;;;;;;;13.57;100.00;100629.53;5010167;28;20462;-82
2022/06/23 01:40:17;;;;;;;31.20;29.02;;;;;;;13.44;100.00;100627.88;5021192;28;20057;-83
2022/06/23 01:42:50;;;;;;;36.20;33.90;;;;;;;13.21;100.00;100631.22;5024952;28;20042;-83
2022/06/23 01:45:32;;;;;;;35.72;33.42;;;;;;;13.36;100.00;100628.19;5022040;28;20410;-84
2022/06/23 01:48:09;;;;;;;32.73;30.53;;;;;;;12.46;100.00;100628.00;5011217;28;20403;-82
2022/06/23 01:50:42;;;;;;;33.05;30.75;;;;;;;12.38;100.00;100621.91;5015925;28;20308;-84
2022/06/23 01:53:27;;;;;;;30.20;28.10;;;;;;;12.32;100.00;100622.81;5019315;28;20049;-84
2022/06/23 01:56:16;;;;;;;29.50;27.13;;;;;;;12.42;100.00;100622.28;5004927;28;20046;-83
2022/06/23 01:58:51;;;;;;;36.35;33.45;;;;;;;12.13;100.00;100623.78;5016176;28;20053;-83
2022/06/23 02:01:28;;;;;;;33.60;31.05;;;;;;;13.06;100.00;100622.81;5125290;22;20083;-81
2022/06/23 02:04:02;;;;;;;33.35;30.52;;;;;;;13.21;100.00;100625.88;5055105;28;20110;-82
2022/06/23 02:06:43;;;;;;;35.38;32.72;;;;;;;12.78;100.00;100629.50;5054731;28;20049;-81
2022/06/23 02:09:23;;;;;;;34.33;31.75;;;;;;;12.17;100.00;100621.53;5059204;28;20059;-82
2022/06/23 02:11:57;;;;;;;31.70;29.20;;;;;;;12.26;100.00;100630.84;5057817;28;20044;-81
2022/06/23 02:14:45;;;;;;;33.60;30.85;;;;;;;13.15;100.00;100639.31;5059310;28;20494;-81
2022/06/23 02:17:28;;;;;;;34.78;32.28;;;;;;;12.79;100.00;100635.63;5050634;28;20048;-83
2022/06/23 02:19:59;;;;;;;32.17;29.58;;;;;;;12.00;100.00;100646.00;5063744;28;20055;-80
2022/06/23 02:22:30;;;;;;;33.50;30.80;;;;;;;12.61;100.00;100631.91;5051801;28;20048;-82
2022/06/23 02:25:05;;;;;;;34.00;31.60;;;;;;;13.13;100.00;100647.56;5055031;28;20056;-81
2022/06/23 02:27:44;;;;;;;33.30;30.90;;;;;;;13.25;100.00;100643.13;5054840;28;20045;-81
2022/06/23 02:30:23;;;;;;;31.90;29.10;;;;;;;12.74;100.00;100643.50;5053051;28;20045;-83
2022/06/23 02:33:06;;;;;;;30.17;27.88;;;;;;;12.31;100.00;100631.81;5043237;28;20061;-80
2022/06/23 02:35:41;;;;;;;31.70;29.30;;;;;;;12.39;100.00;100628.06;5042929;28;20048;-81
2022/06/23 02:38:13;;;;;;;28.40;26.17;;;;;;;12.05;100.00;100637.38;5066195;28;20048;-83
2022/06/23 02:40:43;;;;;;;34.88;31.98;;;;;;;12.40;100.00;100627.00;5057878;28;20073;-81
2022/06/23 02:43:23;;;;;;;32.15;29.50;;;;;;;12.83;100.00;100634.16;5054418;28;20044;-80
2022/06/23 02:46:20;;;;;;;28.20;26.40;;;;;;;12.81;100.00;100630.91;5053850;28;20390;-81
2022/06/23 02:49:28;;;;;;;29.45;27.10;;;;;;;12.90;100.00;100628.75;5062842;28;20102;-80
2022/06/23 02:52:23;;;;;;;29.85;27.23;;;;;;;12.82;100.00;100624.53;5044378;28;20052;-81
2022/06/23 02:55:08;;;;;;;30.15;27.73;;;;;;;12.88;100.00;100630.81;5017551;28;20045;-81
2022/06/23 02:57:42;;;;;;;31.17;29.08;;;;;;;12.70;100.00;100637.78;5043317;28;20488;-81
2022/06/23 03:00:18;;;;;;;31.05;28.95;;;;;;;12.81;100.00;100631.72;5042547;28;20045;-82
2022/06/23 03:02:57;;;;;;;28.63;26.83;;;;;;;13.13;100.00;100639.56;5064419;28;20128;-83
2022/06/23 03:05:34;;;;;;;29.13;27.13;;;;;;;12.81;100.00;100644.22;5053935;28;20037;-83
2022/06/23 03:08:08;;;;;;;29.42;27.42;;;;;;;12.50;100.00;100642.50;5041304;28;20048;-81
2022/06/23 03:10:41;;;;;;;29.13;26.70;;;;;;;12.11;100.00;100636.50;5054325;28;20060;-82
2022/06/23 03:13:16;;;;;;;31.40;29.42;;;;;;;13.28;100.00;100634.66;5053295;28;20049;-81
2022/06/23 03:15:52;;;;;;;28.92;27.13;;;;;;;13.58;100.00;100627.69;5053749;28;20049;-81
2022/06/23 03:18:26;;;;;;;26.85;25.15;;;;;;;13.48;100.00;100638.91;5053181;28;20060;-82
2022/06/23 03:21:00;;;;;;;26.90;25.00;;;;;;;13.78;100.00;100636.22;5054774;28;20405;-82
2022/06/23 03:23:34;;;;;;;26.08;24.40;;;;;;;13.62;100.00;100651.03;5064581;28;20056;-81
2022/06/23 03:26:15;;;;;;;27.48;25.65;;;;;;;13.81;100.00;100645.63;5054110;28;20044;-81
2022/06/23 03:28:49;;;;;;;28.13;26.20;;;;;;;13.99;100.00;100653.53;5051262;28;20122;-82
2022/06/23 03:31:23;;;;;;;27.65;25.75;;;;;;;13.90;100.00;100647.72;5054466;28;20055;-82
2022/06/23 03:34:01;;;;;;;28.73;26.52;;;;;;;14.09;100.00;100651.09;5054445;28;20068;-81
2022/06/23 03:36:36;;;;;;;29.63;27.83;;;;;;;14.24;100.00;100657.88;5054448;28;20052;-83
2022/06/23 03:42:05;;;;;;;27.38;25.67;;;;;;;14.67;100.00;100652.19;5011402;28;20077;-81
2022/06/23 03:44:40;;;;;;;26.15;24.58;;;;;;;14.71;100.00;100660.56;5048278;28;20072;-84
2022/06/23 03:47:20;;;;;;;24.83;23.25;;;;;;;14.82;100.00;100662.41;5055360;28;20041;-85
2022/06/23 03:49:54;;;;;;;26.63;24.98;;;;;;;14.96;100.00;100671.78;5048791;28;20049;-83
2022/06/23 03:52:42;;;;;;;27.17;25.60;;;;;;;15.07;100.00;100660.25;5054181;28;20124;-82
2022/06/23 03:55:26;;;;;;;25.42;23.95;;;;;;;14.96;100.00;100665.63;5037829;28;20061;-82
2022/06/23 03:58:18;;;;;;;25.63;24.10;;;;;;;15.01;100.00;100674.59;5038860;28;20048;-83
2022/06/23 04:00:54;;;;;;;25.20;23.70;;;;;;;15.30;100.00;100682.63;5041580;28;20064;-83
2022/06/23 04:03:36;;;;;;;23.90;22.48;;;;;;;15.47;100.00;100688.84;5050687;28;20064;-81
2022/06/23 04:06:14;;;;;;;;;;;;;;;15.42;100.00;100677.25;5051640;28;20064;-81
2022/06/23 04:08:54;;;;;;;24.27;22.75;;;;;;;15.41;100.00;100671.09;5046727;28;19924;-82
2022/06/23 04:14:23;;;;;;;47.38;44.40;;;;;;;15.56;100.00;100670.56;5033547;28;20195;-83
2022/06/23 04:17:09;;;;;;;53.72;49.78;;;;;;;15.79;100.00;100670.47;5048398;28;20049;-83
2022/06/23 04:19:37;;;;;;;53.15;49.47;;;;;;;16.20;100.00;100670.31;5053816;28;20056;-83
2022/06/23 04:22:19;;;;;;;24.58;23.15;;;;;;;16.19;100.00;100680.25;5051674;28;20049;-83
2022/06/23 04:25:03;;;;;;;24.92;23.40;;;;;;;16.48;100.00;100664.03;5049618;28;20055;-84
2022/06/23 04:27:38;;;;;;;24.45;22.95;;;;;;;16.14;100.00;100679.34;5044983;28;20072;-81
2022/06/23 04:30:18;;;;;;;23.95;22.33;;;;;;;16.41;100.00;100674.94;5045429;28;20049;-81
2022/06/23 04:32:48;;;;;;;24.20;22.55;;;;;;;16.40;100.00;100685.88;5044818;28;20061;-82
2022/06/23 04:35:21;;;;;;;23.60;22.10;;;;;;;16.75;100.00;100674.88;5042841;28;20111;-84
2022/06/23 04:37:52;;;;;;;;;;;;;;;17.15;100.00;100677.28;5057735;28;20465;-83
2022/06/23 04:40:27;;;;;;;24.30;22.75;;;;;;;17.33;100.00;100681.50;5057373;28;20315;-82
2022/06/23 04:43:01;;;;;;;25.40;23.67;;;;;;;16.72;100.00;100697.63;5056719;28;20102;-82
2022/06/23 04:45:37;;;;;;;23.35;22.05;;;;;;;17.17;100.00;100696.63;5055318;28;20061;-83
2022/06/23 04:48:10;;;;;;;23.73;22.02;;;;;;;17.03;100.00;100690.00;5049249;28;20106;-84
2022/06/23 04:50:48;;;;;;;23.63;22.10;;;;;;;17.47;100.00;100695.38;5049382;28;20048;-84
2022/06/23 04:53:37;;;;;;;25.42;24.02;;;;;;;17.41;100.00;100696.38;5055236;28;20477;-83
2022/06/23 04:56:12;;;;;;;25.40;23.92;;;;;;;17.91;100.00;100697.97;5056704;28;20052;-81
2022/06/23 04:58:48;;;;;;;24.90;23.50;;;;;;;17.88;100.00;100693.09;5054981;28;20041;-83
2022/06/23 05:01:19;;;;;;;25.75;24.20;;;;;;;18.26;100.00;100708.22;5058665;28;20048;-84
2022/06/23 05:03:51;;;;;;;24.90;23.45;;;;;;;18.34;100.00;100711.53;5063605;28;20044;-83
2022/06/23 05:06:32;;;;;;;25.98;24.35;;;;;;;18.61;100.00;100704.19;5061655;28;20052;-84
2022/06/23 05:09:03;;;;;;;25.10;23.60;;;;;;;18.84;100.00;100705.66;5065182;28;20048;-83
2022/06/23 05:11:40;;;;;;;25.40;24.00;;;;;;;19.10;100.00;100700.44;5059353;28;20437;-81
2022/06/23 05:14:17;;;;;;;29.10;25.50;;;;;;;19.47;100.00;100711.06;5057477;28;20447;-82
2022/06/23 05:16:48;;;;;;;26.80;25.23;;;;;;;19.61;100.00;100711.38;5052476;28;20128;-83
2022/06/23 05:19:24;;;;;;;27.48;25.33;;;;;;;19.28;100.00;100701.84;5056291;28;20382;-82
2022/06/23 05:21:56;;;;;;;25.95;24.35;;;;;;;19.81;100.00;100714.09;5058722;28;20048;-82
2022/06/23 05:24:28;;;;;;;24.67;23.30;;;;;;;20.05;100.00;100719.78;5057245;28;20049;-82
2022/06/23 05:27:00;;;;;;;24.83;23.35;;;;;;;20.49;100.00;100727.34;5054989;28;20041;-82
2022/06/23 05:29:32;;;;;;;25.33;23.67;;;;;;;20.68;100.00;100732.19;5045324;28;20048;-83
2022/06/23 05:32:02;;;;;;;;;;;;;;;21.21;100.00;100725.31;5058671;28;20061;-83
2022/06/23 05:34:34;;;;;;;26.15;24.63;;;;;;;21.41;100.00;100719.00;5052849;28;20012;-82
2022/06/23 05:37:07;;;;;;;26.77;24.88;;;;;;;21.75;100.00;100728.28;5056047;28;20048;-82
2022/06/23 05:39:43;;;;;;;;;;;;;;;21.92;100.00;100723.31;5054817;28;20044;-84
2022/06/23 05:42:17;;;;;;;26.35;24.75;;;;;;;21.83;100.00;100728.50;5050113;28;19935;-82
2022/06/23 05:44:56;;;;;;;26.75;25.25;;;;;;;22.31;89.58;100727.91;5057937;28;20488;-82
2022/06/23 05:47:28;;;;;;;26.25;24.33;;;;;;;22.58;90.29;100738.22;5058326;28;20060;-84
2022/06/23 05:50:00;;;;;;;24.30;22.80;;;;;;;22.74;98.63;100742.38;5054718;28;20059;-84
2022/06/23 05:52:34;;;;;;;24.08;22.50;;;;;;;22.87;96.60;100749.00;5057424;28;20464;-84
2022/06/23 05:55:12;;;;;;;24.55;22.75;;;;;;;23.24;98.11;100752.97;5074521;28;20472;-82
2022/06/23 05:57:47;;;;;;;26.02;24.42;;;;;;;23.62;91.97;100763.84;5062837;28;20049;-86
2022/06/23 06:00:28;;;;;;;25.75;23.40;;;;;;;23.59;87.57;100773.34;5043924;28;20041;-81
2022/06/23 06:03:00;;;;;;;27.10;25.17;;;;;;;23.32;96.67;100760.44;5063667;28;20049;-84
2022/06/23 06:05:34;;;;;;;27.02;25.02;;;;;;;23.74;100.00;100784.03;5047165;28;20049;-83
2022/06/23 06:08:04;;;;;;;28.20;25.92;;;;;;;24.08;84.11;100772.13;5043335;28;20461;-85
2022/06/23 06:10:37;;;;;;;28.02;25.83;;;;;;;24.11;85.41;100776.16;5048310;28;20072;-83
2022/06/23 06:13:15;;;;;;;29.65;27.10;;;;;;;24.57;84.02;100775.44;5052102;28;20067;-84
2022/06/23 06:15:48;;;;;;;29.92;27.73;;;;;;;23.78;74.19;100776.09;5058389;28;20068;-84
2022/06/23 06:18:22;;;;;;;27.83;25.70;;;;;;;24.08;75.40;100777.56;5065583;28;20055;-84
2022/06/23 06:20:49;;;;;;;32.75;29.65;;;;;;;24.55;75.63;100777.66;5060318;28;20045;-85
2022/06/23 06:23:22;;;;;;;26.80;25.00;;;;;;;23.90;75.00;100776.47;5066998;28;20060;-85
2022/06/23 06:25:50;;;;;;;32.75;30.83;;;;;;;23.92;76.33;100768.06;5056259;28;20052;-85
2022/06/23 06:28:21;;;;;;;32.60;30.25;;;;;;;23.81;75.34;100775.53;5054029;28;20072;-84
2022/06/23 06:33:50;;;;;;;29.02;26.85;;;;;;;23.86;88.94;100761.91;5053834;28;20041;-83
2022/06/23 06:36:25;;;;;;;31.10;28.70;;;;;;;23.93;79.45;100765.06;5045157;28;20048;-85
2022/06/23 06:38:55;;;;;;;31.55;29.27;;;;;;;24.00;74.83;100757.34;5048636;28;20060;-83
2022/06/23 06:41:28;;;;;;;27.65;25.55;;;;;;;24.32;68.36;100753.03;5043160;28;20118;-84
2022/06/23 06:44:01;;;;;;;29.05;26.65;;;;;;;24.37;70.01;100754.88;5054438;28;20045;-84
2022/06/23 06:46:28;;;;;;;27.92;26.00;;;;;;;23.94;66.48;100757.72;5052554;28;20052;-83
2022/06/23 06:48:56;;;;;;;27.38;25.40;;;;;;;24.25;75.93;100758.03;5049627;28;20049;-85
2022/06/23 06:51:26;;;;;;;29.08;27.40;;;;;;;23.90;68.40;100762.09;5053338;28;20107;-82
2022/06/23 06:53:59;;;;;;;29.55;27.30;;;;;;;24.21;65.12;100757.84;5047296;28;20045;-83
2022/06/23 06:56:35;;;;;;;29.40;27.20;;;;;;;24.06;67.90;100755.38;5053434;28;20053;-83
2022/06/23 06:59:16;;;;;;;31.70;29.70;;;;;;;24.33;73.24;100762.81;5051459;28;20045;-83
2022/06/23 07:01:49;;;;;;;32.17;29.80;;;;;;;23.58;60.89;100755.50;5055920;28;20067;-82
2022/06/23 07:04:20;;;;;;;30.08;28.08;;;;;;;23.38;60.49;100755.75;5053676;28;20307;-82
2022/06/23 07:06:53;;;;;;;32.30;30.08;;;;;;;23.03;63.09;100746.97;5049235;28;20056;-82
2022/06/23 07:09:29;;;;;;;31.90;30.10;;;;;;;23.28;62.16;100740.44;5045287;28;20131;-82
2022/06/23 07:12:05;;;;;;;28.85;27.05;;;;;;;23.16;63.61;100731.91;5037750;28;20045;-83
2022/06/23 07:14:48;;;;;;;29.70;27.67;;;;;;;23.48;68.98;100733.94;5051674;28;20487;-83
2022/06/23 07:17:20;;;;;;;29.23;27.23;;;;;;;23.25;62.94;100720.13;5053197;28;20484;-82
2022/06/23 07:19:57;;;;;;;28.13;26.00;;;;;;;23.72;60.08;100709.50;5043909;28;20056;-83
2022/06/23 07:22:29;;;;;;;28.05;26.35;;;;;;;23.48;61.75;100714.94;5054761;28;20049;-82
2022/06/23 07:25:15;;;;;;;27.60;25.80;;;;;;;24.18;58.88;100706.06;5050477;28;20045;-83
2022/06/23 07:27:56;;;;;;;28.02;25.90;;;;;;;24.01;60.60;100701.19;5053732;28;20056;-83
2022/06/23 07:30:35;;;;;;;29.83;27.80;;;;;;;24.33;55.52;100697.66;5061364;28;20071;-82
2022/06/23 07:33:08;;;;;;;26.30;24.13;;;;;;;24.20;57.42;100682.94;5055227;28;20106;-83
2022/06/23 07:36:04;;;;;;;26.55;24.70;;;;;;;24.53;63.26;100679.41;5049057;28;20040;-84
2022/06/23 07:38:37;;;;;;;27.05;25.30;;;;;;;24.80;65.29;100665.84;5029137;28;20046;-82
2022/06/23 07:41:12;;;;;;;26.60;24.63;;;;;;;24.95;58.66;100661.22;5048667;28;20060;-83
2022/06/23 07:43:45;;;;;;;25.70;23.80;;;;;;;24.92;57.88;100651.75;5067742;28;20102;-85
2022/06/23 07:46:45;;;;;;;25.67;23.83;;;;;;;25.00;56.13;100648.34;5050029;28;20041;-84
2022/06/23 07:49:26;;;;;;;27.33;25.27;;;;;;;25.09;54.20;100627.47;5054140;28;20063;-87
2022/06/23 07:52:01;;;;;;;25.70;23.92;;;;;;;24.69;53.34;100621.00;5052998;28;20041;-85
2022/06/23 07:54:31;;;;;;;25.38;23.50;;;;;;;24.42;56.34;100614.47;5054999;28;20053;-85
2022/06/23 07:56:59;;;;;;;26.90;24.75;;;;;;;24.84;60.15;100617.97;5051858;28;20057;-85
2022/06/23 07:59:35;;;;;;;27.90;25.95;;;;;;;24.90;55.56;100614.03;5051121;28;20420;-85
2022/06/23 08:02:21;;;;;;;30.85;28.40;;;;;;;24.70;59.43;100598.19;5051683;28;20090;-85
2022/06/23 08:04:59;;;;;;;29.90;27.65;;;;;;;24.98;59.42;100598.13;5059397;28;20461;-84
2022/06/23 08:07:36;;;;;;;32.05;29.00;;;;;;;24.94;56.27;100597.13;5055437;28;20041;-84
2022/06/23 08:10:08;;;;;;;30.48;28.15;;;;;;;24.84;57.22;100587.28;5056333;28;20055;-84
2022/06/23 08:12:55;;;;;;;30.13;27.83;;;;;;;25.00;62.38;100585.84;5058918;28;20053;-85
2022/06/23 08:18:40;;;;;;;29.85;27.67;;;;;;;24.93;63.06;100577.28;5052997;28;20064;-85
2022/06/23 08:21:17;;;;;;;31.95;29.70;;;;;;;25.19;60.88;100580.28;5064505;28;20053;-86
2022/06/23 08:24:01;;;;;;;32.25;30.05;;;;;;;25.36;65.20;100587.78;5073155;28;20049;-84
2022/06/23 08:26:31;;;;;;;33.78;31.30;;;;;;;25.72;66.13;100592.31;5065954;28;20484;-85
2022/06/23 08:29:04;;;;;;;26.80;25.10;;;;;;;25.19;66.27;100610.19;5063979;28;20094;-85
2022/06/23 08:31:32;;;;;;;;;;;;;;;25.58;68.06;100612.25;5068975;28;20045;-85
2022/06/23 08:34:02;;;;;;;27.38;25.58;;;;;;;25.08;61.61;100623.16;5062785;28;19920;-83
2022/06/23 08:36:42;;;;;;;28.33;26.63;;;;;;;25.22;63.33;100630.50;5048043;28;20060;-84
2022/06/23 08:39:15;;;;;;;28.23;26.25;;;;;;;25.65;68.31;100635.47;5055164;28;20064;-82
2022/06/23 08:41:51;;;;;;;29.08;27.02;;;;;;;25.30;65.60;100659.69;5055399;28;20044;-82
2022/06/23 08:44:42;;;;;;;28.50;26.70;;;;;;;25.35;65.62;100648.69;5047030;28;20041;-85
2022/06/23 08:47:22;;;;;;;27.33;25.40;;;;;;;25.69;71.05;100656.31;5052672;28;20974;-86
2022/06/23 08:50:03;;;;;;;27.92;26.13;;;;;;;25.27;65.10;100655.66;5054937;28;20057;-88
2022/06/23 08:53:07;;;;;;;29.67;27.58;;;;;;;25.88;65.31;100655.38;5057638;28;20485;-84
2022/06/23 08:55:44;;;;;;;28.70;26.42;;;;;;;25.73;75.04;100664.66;5072274;28;20057;-84
2022/06/23 08:58:19;;;;;;;28.05;26.25;;;;;;;25.21;65.65;100670.47;5050655;28;20045;-83
2022/06/23 09:00:56;;;;;;;28.23;26.35;;;;;;;24.78;75.39;100676.22;5039487;28;20514;-84
2022/06/23 09:03:30;;;;;;;27.80;25.90;;;;;;;24.86;85.40;100669.28;5066544;28;20053;-82
2022/06/23 09:06:09;;;;;;;27.05;25.25;;;;;;;24.85;70.08;100673.09;5052242;28;20056;-83
2022/06/23 09:08:47;;;;;;;26.30;24.38;;;;;;;24.92;76.94;100670.78;5050375;28;20048;-84
2022/06/23 09:11:27;;;;;;;27.75;25.80;;;;;;;24.97;77.41;100676.09;5047976;28;20059;-83
2022/06/23 09:14:13;;;;;;;27.13;25.33;;;;;;;24.98;91.34;100677.72;5054108;28;20057;-83
2022/06/23 09:17:03;;;;;;;28.05;26.25;;;;;;;25.05;82.21;100683.56;5055439;28;20052;-83
2022/06/23 09:19:46;;;;;;;28.48;26.77;;;;;;;25.07;77.68;100684.03;5045295;28;20425;-84
2022/06/23 09:22:53;;;;;;;26.15;24.55;;;;;;;24.94;75.48;100682.16;5057205;28;20045;-86
2022/06/23 09:25:31;;;;;;;29.25;26.88;;;;;;;25.20;69.72;100674.28;5040582;28;20138;-87
2022/06/23 09:28:15;;;;;;;26.33;24.73;;;;;;;25.31;82.95;100674.88;5060206;28;20045;-86
2022/06/23 09:31:08;;;;;;;27.73;25.83;;;;;;;25.47;77.44;100670.69;5048495;28;20064;-84
2022/06/23 09:33:47;;;;;;;29.20;27.20;;;;;;;25.44;67.07;100676.75;5050940;28;20053;-84
2022/06/23 09:36:43;;;;;;;29.05;27.35;;;;;;;25.42;66.21;100673.53;5064100;28;20401;-84
2022/06/23 09:39:35;;;;;;;30.95;29.08;;;;;;;25.71;91.83;100667.69;5065627;28;20045;-82
2022/06/23 09:42:23;;;;;;;31.27;29.13;;;;;;;25.98;83.50;100674.94;5055004;28;20053;-86
2022/06/23 09:45:13;;;;;;;29.92;27.92;;;;;;;26.06;75.13;100672.59;5062648;28;20524;-84
2022/06/23 09:48:05;;;;;;;28.02;26.42;;;;;;;26.41;72.44;100665.41;5068073;28;20106;-86
2022/06/23 09:51:25;;;;;;;29.10;27.10;;;;;;;26.14;69.53;100682.72;5056834;28;20057;-85
2022/06/23 09:54:31;;;;;;;30.42;28.33;;;;;;;25.98;87.94;100682.31;5046727;28;20072;-82
2022/06/23 09:57:26;;;;;;;31.08;28.80;;;;;;;26.06;72.58;100665.22;5041774;28;20114;-84
2022/06/23 10:00:07;;;;;;;29.52;27.67;;;;;;;26.29;86.79;100676.88;5056053;28;20131;-82
2022/06/23 10:03:01;;;;;;;29.88;28.02;;;;;;;26.22;88.24;100669.16;5047185;28;20523;-82
2022/06/23 10:05:52;;;;;;;30.60;28.50;;;;;;;25.75;66.72;100676.84;5059492;28;20065;-84
2022/06/23 10:08:36;;;;;;;29.70;27.55;;;;;;;26.37;61.90;100678.03;5064851;28;20045;-84
2022/06/23 10:11:25;;;;;;;29.35;27.35;;;;;;;26.24;72.72;100686.00;5046019;28;20037;-83
2022/06/23 10:14:06;;;;;;;28.58;26.58;;;;;;;26.35;80.48;100677.53;5040458;28;20080;-84
2022/06/23 10:16:47;;;;;;;29.05;26.92;;;;;;;25.85;63.89;100685.91;5055141;28;20053;-83
2022/06/23 10:19:30;;;;;;;30.95;28.52;;;;;;;26.32;56.80;100680.91;5052855;28;20046;-82
2022/06/23 10:22:12;;;;;;;28.02;26.13;;;;;;;25.97;60.09;100684.22;5056343;28;20059;-80
2022/06/23 10:25:09;;;;;;;30.60;28.40;;;;;;;26.32;72.58;100695.31;5056648;28;20049;-82
2022/06/23 10:27:56;;;;;;;31.00;28.80;;;;;;;26.28;84.26;100691.59;4981338;28;20365;-81
2022/06/23 10:30:31;;;;;;;31.30;29.10;;;;;;;26.06;84.30;100680.75;5061901;28;20473;-82
2022/06/23 10:33:33;;;;;;;29.77;27.58;;;;;;;25.68;64.84;100689.25;5063347;28;20047;-82
2022/06/23 10:36:27;;;;;;;32.30;30.08;;;;;;;26.13;64.13;100683.84;5047709;28;20055;-81
2022/06/23 10:39:07;;;;;;;29.90;27.30;;;;;;;26.32;61.23;100676.25;5059784;28;20053;-78
2022/06/23 10:42:01;;;;;;;28.30;26.13;;;;;;;26.71;59.50;100680.13;5065747;28;20404;-82
2022/06/23 10:45:21;;;;;;;29.73;27.42;;;;;;;26.48;54.69;100682.13;5068623;28;20076;-82
2022/06/23 10:48:30;;;;;;;29.55;27.40;;;;;;;26.24;58.19;100674.31;5013090;28;20063;-81
2022/06/23 10:51:13;;;;;;;31.17;29.17;;;;;;;25.87;63.90;100678.22;4994432;28;20062;-81
2022/06/23 10:54:29;;;;;;;29.85;27.90;;;;;;;26.09;59.85;100682.88;5049718;28;20059;-81
2022/06/23 10:57:14;;;;;;;28.48;26.42;;;;;;;26.17;65.77;100682.91;5060680;28;20048;-80
2022/06/23 11:00:02;;;;;;;28.63;26.83;;;;;;;25.97;76.52;100675.25;5054324;28;20471;-82
2022/06/23 11:03:12;;;;;;;27.35;25.50;;;;;;;26.21;55.29;100675.72;5057422;28;20119;-84
2022/06/23 11:06:04;;;;;;;27.13;25.33;;;;;;;26.22;71.79;100671.09;5062653;28;20056;-80
2022/06/23 11:08:52;;;;;;;28.75;26.85;;;;;;;26.32;61.73;100672.72;5057425;28;20123;-80
2022/06/23 11:11:37;;;;;;;27.90;25.88;;;;;;;26.20;60.33;100665.13;5052952;28;20056;-79
2022/06/23 11:14:14;;;;;;;29.02;27.13;;;;;;;26.68;56.38;100670.66;5060187;28;20425;-83
2022/06/23 11:16:53;;;;;;;31.10;28.98;;;;;;;26.91;57.19;100657.75;5062609;28;20052;-82
2022/06/23 11:19:42;;;;;;;26.98;25.27;;;;;;;26.32;54.37;100656.41;5056518;28;20110;-83
2022/06/23 11:22:29;;;;;;;28.33;26.52;;;;;;;26.58;62.54;100654.63;5052090;28;20044;-80
2022/06/23 11:25:09;;;;;;;26.27;24.67;;;;;;;26.37;51.62;100659.00;5056133;28;20052;-80
2022/06/23 11:27:45;;;;;;;25.15;23.42;;;;;;;26.58;55.21;100654.63;5047371;28;20070;-80
2022/06/23 11:30:27;;;;;;;24.85;23.15;;;;;;;26.80;50.12;100659.16;5051522;28;20064;-82
2022/06/23 11:33:11;;;;;;;28.20;26.15;;;;;;;26.78;47.51;100663.31;5068027;28;20397;-79
2022/06/23 11:35:55;;;;;;;27.13;25.10;;;;;;;26.35;49.99;100653.84;5050702;28;20081;-80
2022/06/23 11:38:46;;;;;;;27.77;25.38;;;;;;;26.11;51.44;100667.81;5052860;28;20057;-81
2022/06/23 11:41:37;;;;;;;28.23;26.02;;;;;;;26.56;49.71;100662.28;5065175;28;20056;-81
2022/06/23 11:44:23;;;;;;;27.85;25.67;;;;;;;26.24;46.04;100666.94;5060228;28;20057;-81
2022/06/23 11:47:18;;;;;;;;;;;;;;;;;;;;;
2022/06/23 11:50:16;;;;;;;;;;;;;;;;;;;;;
2022/06/23 11:53:09;;;;;;;27.52;25.52;;;;;;;26.63;45.48;100670.03;5062145;28;20132;-80
2022/06/23 11:55:49;;;;;;;26.63;24.83;;;;;;;26.77;44.81;100676.16;5056205;28;20037;-81
2022/06/23 11:58:45;;;;;;;27.17;25.27;;;;;;;27.04;45.31;100666.91;5057466;28;20118;-82
2022/06/23 12:01:19;;;;;;;27.08;25.05;;;;;;;26.37;46.45;100670.69;5054640;28;20531;-81
2022/06/23 12:04:18;;;;;;;28.75;26.45;;;;;;;26.82;46.42;100667.84;5055162;28;20145;-82
2022/06/23 12:07:10;;;;;;;27.55;25.55;;;;;;;26.17;44.63;100672.03;5049867;28;20053;-82
2022/06/23 12:09:56;;;;;;;27.13;25.40;;;;;;;26.71;46.97;100666.50;5047974;28;20041;-82
2022/06/23 12:12:26;;;;;;;28.90;27.10;;;;;;;26.65;58.04;100668.56;5058467;28;20060;-82
2022/06/23 12:15:07;;;;;;;28.13;26.23;;;;;;;26.72;49.21;100679.03;5054194;28;20053;-82
2022/06/23 12:17:40;;;;;;;29.42;27.45;;;;;;;26.94;52.56;100665.31;5058425;28;20434;-82